Time;durP1;ratioP1;P1;durP2;ratioP2;P2;SDS_P1;SDS_P2;PMS_P1;PMS_P2;Temp;Humidity;BMP_temperature;BMP_pressure;BME280_temperature;BME280_humidity;BME280_pressure;Samples;Min_cycle;Max_cycle;Signal;HPM_P1;HPM_P2
2024/03/08 00:00:18;;;;;;;56.72;24.15;;;2.30;99.90;;;;;;5060393;28;20021;-73
2024/03/08 00:02:44;;;;;;;56.78;24.85;;;2.20;99.90;;;;;;5061209;28;20100;-75
2024/03/08 00:05:11;;;;;;;59.65;24.50;;;2.20;99.90;;;;;;5060385;28;20052;-76
2024/03/08 00:07:40;;;;;;;58.25;23.63;;;2.20;99.90;;;;;;5061934;28;20054;-72
2024/03/08 00:10:11;;;;;;;53.03;23.38;;;2.20;99.90;;;;;;5059661;28;20080;-74
2024/03/08 00:12:43;;;;;;;60.33;24.17;;;2.20;99.90;;;;;;5061398;28;20028;-74
2024/03/08 00:15:13;;;;;;;59.47;23.90;;;2.20;99.90;;;;;;5061479;28;20053;-73
2024/03/08 00:17:40;;;;;;;56.63;23.52;;;2.20;99.90;;;;;;5059045;28;20035;-73
2024/03/08 00:20:08;;;;;;;61.90;24.02;;;2.10;99.90;;;;;;5058830;28;20021;-72
2024/03/08 00:22:34;;;;;;;64.63;23.80;;;2.10;99.90;;;;;;5060202;28;20025;-76
2024/03/08 00:25:00;;;;;;;54.55;23.90;;;2.10;99.90;;;;;;5060137;28;20025;-75
2024/03/08 00:27:25;;;;;;;58.20;23.02;;;2.10;99.90;;;;;;5061719;28;20033;-74
2024/03/08 00:29:51;;;;;;;52.97;22.55;;;2.10;99.90;;;;;;5061449;28;20056;-74
2024/03/08 00:32:17;;;;;;;55.47;23.30;;;2.10;99.90;;;;;;5061531;28;20029;-72
2024/03/08 00:34:42;;;;;;;53.67;23.20;;;2.10;99.90;;;;;;5061619;28;20052;-74
2024/03/08 00:37:08;;;;;;;53.60;23.25;;;2.10;99.90;;;;;;5061226;28;20024;-75
2024/03/08 00:39:34;;;;;;;49.88;21.15;;;2.10;99.90;;;;;;5066713;28;20113;-72
2024/03/08 00:41:59;;;;;;;52.83;22.00;;;2.00;99.90;;;;;;5067128;28;20056;-73
2024/03/08 00:44:25;;;;;;;56.55;23.05;;;2.00;99.90;;;;;;5066450;28;20017;-74
2024/03/08 00:46:51;;;;;;;50.28;21.83;;;2.00;99.90;;;;;;5066646;28;20037;-72
2024/03/08 00:49:16;;;;;;;56.80;23.15;;;1.90;99.90;;;;;;5067942;28;20017;-74
2024/03/08 00:51:43;;;;;;;53.40;21.85;;;1.90;99.90;;;;;;5067844;28;20032;-74
2024/03/08 00:54:09;;;;;;;56.55;22.33;;;1.90;99.90;;;;;;5065402;28;20041;-73
2024/03/08 00:56:35;;;;;;;51.53;22.17;;;1.90;99.90;;;;;;5066399;28;20021;-75
2024/03/08 00:59:02;;;;;;;54.55;23.42;;;1.90;99.90;;;;;;5066298;28;20032;-75
2024/03/08 01:01:28;;;;;;;49.92;22.85;;;1.80;99.90;;;;;;5066805;28;20035;-74
2024/03/08 01:03:54;;;;;;;53.00;22.75;;;1.80;99.90;;;;;;5066058;28;20021;-74
2024/03/08 01:06:19;;;;;;;52.10;22.65;;;1.80;99.90;;;;;;5065619;28;20021;-73
2024/03/08 01:08:45;;;;;;;48.45;20.85;;;1.80;99.90;;;;;;5067938;28;20075;-74
2024/03/08 01:11:13;;;;;;;54.58;22.38;;;1.80;99.90;;;;;;5067869;28;20041;-74
2024/03/08 01:13:39;;;;;;;52.33;22.50;;;1.80;99.90;;;;;;5066018;28;20035;-73
2024/03/08 01:16:05;;;;;;;57.17;22.55;;;1.70;99.90;;;;;;5067024;28;20108;-74
2024/03/08 01:18:31;;;;;;;51.72;22.10;;;1.80;99.90;;;;;;5066500;28;20079;-74
2024/03/08 01:20:57;;;;;;;56.50;22.98;;;1.70;99.90;;;;;;5066470;28;20063;-74
2024/03/08 01:23:23;;;;;;;51.67;21.58;;;1.70;99.90;;;;;;5067923;28;20481;-73
2024/03/08 01:25:50;;;;;;;56.50;22.63;;;1.70;99.90;;;;;;5066181;28;20385;-75
2024/03/08 01:28:15;;;;;;;53.83;21.27;;;1.70;99.90;;;;;;5065088;28;20061;-75
2024/03/08 01:30:42;;;;;;;54.85;23.25;;;1.70;99.90;;;;;;5066736;28;20009;-74
2024/03/08 01:33:08;;;;;;;53.13;22.50;;;1.70;99.90;;;;;;5067836;28;20017;-75
2024/03/08 01:35:34;;;;;;;55.00;22.88;;;1.70;99.90;;;;;;5067385;28;20032;-75
2024/03/08 01:38:00;;;;;;;50.33;22.75;;;1.60;99.90;;;;;;5068392;28;20470;-75
2024/03/08 01:40:25;;;;;;;52.45;21.98;;;1.80;99.90;;;;;;5068215;28;20466;-73
2024/03/08 01:42:51;;;;;;;51.08;20.95;;;1.70;99.90;;;;;;5068256;28;20422;-74
2024/03/08 01:45:16;;;;;;;51.03;21.80;;;1.60;99.90;;;;;;5066662;28;20017;-75
2024/03/08 01:47:42;;;;;;;53.90;21.85;;;1.60;99.90;;;;;;5066590;28;20033;-72
2024/03/08 01:50:08;;;;;;;53.22;22.33;;;1.60;99.90;;;;;;5066157;28;20028;-75
2024/03/08 01:52:35;;;;;;;55.40;22.83;;;1.60;99.90;;;;;;5064776;28;20024;-73
2024/03/08 01:55:02;;;;;;;52.63;21.60;;;1.60;99.90;;;;;;5063337;28;20503;-75
2024/03/08 01:57:28;;;;;;;52.97;22.90;;;1.60;99.90;;;;;;5064579;28;20017;-74
2024/03/08 01:59:55;;;;;;;52.22;22.27;;;1.50;99.90;;;;;;5063596;28;20071;-75
2024/03/08 02:02:24;;;;;;;53.08;22.60;;;1.50;99.90;;;;;;5064521;28;20040;-74
2024/03/08 02:04:52;;;;;;;50.55;22.25;;;1.50;99.90;;;;;;5063795;28;20029;-74
2024/03/08 02:07:18;;;;;;;57.33;22.52;;;1.50;99.90;;;;;;5064066;28;20385;-74
2024/03/08 02:09:43;;;;;;;58.60;23.08;;;1.50;99.90;;;;;;5064127;28;20045;-74
2024/03/08 02:12:10;;;;;;;48.45;21.35;;;1.50;99.90;;;;;;5063245;28;20037;-74
2024/03/08 02:14:36;;;;;;;52.53;21.77;;;1.50;99.90;;;;;;5062449;28;20027;-74
2024/03/08 02:17:02;;;;;;;53.70;22.55;;;1.50;99.90;;;;;;5064475;28;20050;-75
2024/03/08 02:19:28;;;;;;;55.45;22.48;;;1.50;99.90;;;;;;5063496;28;20021;-74
2024/03/08 02:21:53;;;;;;;53.97;22.58;;;1.50;99.90;;;;;;5062832;28;20044;-74
2024/03/08 02:24:19;;;;;;;55.97;23.02;;;1.50;99.90;;;;;;5063796;28;20104;-75
2024/03/08 02:26:45;;;;;;;54.10;22.77;;;1.50;99.90;;;;;;5063036;28;20430;-75
2024/03/08 02:29:10;;;;;;;59.53;22.08;;;1.50;99.90;;;;;;5062479;28;20017;-74
2024/03/08 02:31:36;;;;;;;53.47;22.40;;;1.50;99.90;;;;;;5063151;28;20071;-74
2024/03/08 02:34:02;;;;;;;49.95;21.92;;;1.40;99.90;;;;;;5062904;28;20541;-75
2024/03/08 02:36:27;;;;;;;55.25;24.25;;;1.40;99.90;;;;;;5062692;28;20029;-75
2024/03/08 02:38:55;;;;;;;59.42;22.30;;;1.40;99.90;;;;;;5064178;28;20029;-73
2024/03/08 02:41:21;;;;;;;55.78;22.90;;;1.40;99.90;;;;;;5063952;28;20025;-73
2024/03/08 02:43:46;;;;;;;51.20;22.35;;;1.40;99.90;;;;;;5063713;28;20033;-74
2024/03/08 02:46:12;;;;;;;53.47;22.00;;;1.40;99.90;;;;;;5062648;28;20433;-73
2024/03/08 02:48:37;;;;;;;53.95;22.45;;;1.40;99.90;;;;;;5062589;28;20033;-73
2024/03/08 02:51:03;;;;;;;50.33;22.17;;;1.40;99.90;;;;;;5063573;28;20079;-74
2024/03/08 02:53:29;;;;;;;51.15;22.60;;;1.40;99.90;;;;;;5062815;28;20043;-74
2024/03/08 02:55:55;;;;;;;51.80;22.25;;;1.40;99.90;;;;;;5062620;28;20047;-76
2024/03/08 02:58:20;;;;;;;55.40;23.25;;;1.30;99.90;;;;;;5063365;28;20063;-74
2024/03/08 03:00:46;;;;;;;53.63;22.05;;;1.30;99.90;;;;;;5061797;28;20115;-75
2024/03/08 03:03:11;;;;;;;53.85;22.90;;;1.30;99.90;;;;;;5062027;28;20028;-74
2024/03/08 03:05:37;;;;;;;52.55;22.63;;;1.30;99.90;;;;;;5062109;28;20021;-75
2024/03/08 03:08:08;;;;;;;55.72;21.85;;;1.30;99.90;;;;;;5063752;28;20059;-75
2024/03/08 03:10:34;;;;;;;56.00;22.75;;;1.30;99.90;;;;;;5063292;28;20086;-73
2024/03/08 03:13:00;;;;;;;65.53;23.55;;;1.30;99.90;;;;;;5062942;28;20090;-76
2024/03/08 03:15:25;;;;;;;54.70;23.20;;;1.20;99.90;;;;;;5063374;28;20048;-74
2024/03/08 03:17:51;;;;;;;53.15;22.70;;;1.20;99.90;;;;;;5063200;28;20020;-73
2024/03/08 03:20:23;;;;;;;59.08;23.52;;;1.20;99.90;;;;;;5063304;28;20446;-73
2024/03/08 03:22:51;;;;;;;56.08;23.05;;;1.20;99.90;;;;;;5063444;28;20021;-74
2024/03/08 03:25:33;;;;;;;54.05;22.77;;;1.20;99.90;;;;;;5062285;28;20031;-75
2024/03/08 03:27:59;;;;;;;54.00;23.90;;;1.20;99.90;;;;;;5062896;28;20777;-73
2024/03/08 03:30:26;;;;;;;56.38;22.67;;;1.20;99.90;;;;;;5063180;28;20017;-73
2024/03/08 03:32:52;;;;;;;58.15;24.17;;;1.10;99.90;;;;;;5061412;28;20033;-75
2024/03/08 03:35:20;;;;;;;63.60;23.40;;;1.10;99.90;;;;;;5061762;28;20032;-72
2024/03/08 03:38:07;;;;;;;55.00;23.35;;;1.10;99.90;;;;;;5061634;28;20059;-73
2024/03/08 03:40:42;;;;;;;53.15;23.13;;;1.10;99.90;;;;;;5062543;28;20071;-74
2024/03/08 03:43:09;;;;;;;57.15;23.00;;;1.20;99.90;;;;;;5061558;28;20046;-75
2024/03/08 03:45:35;;;;;;;58.88;24.23;;;1.10;99.90;;;;;;5061983;28;20017;-74
2024/03/08 03:48:09;;;;;;;56.67;24.00;;;1.10;99.90;;;;;;5062859;28;20044;-74
2024/03/08 03:50:35;;;;;;;63.97;24.23;;;1.00;99.90;;;;;;5063036;28;20025;-75
2024/03/08 03:53:02;;;;;;;62.53;24.42;;;1.10;99.90;;;;;;5062537;28;20033;-77
2024/03/08 03:55:28;;;;;;;60.47;24.23;;;1.00;99.90;;;;;;5061142;28;20045;-74
2024/03/08 03:57:54;;;;;;;64.47;23.70;;;1.00;99.90;;;;;;5061270;28;20021;-74
2024/03/08 04:00:20;;;;;;;58.28;23.17;;;1.00;99.90;;;;;;5060814;28;20059;-74
2024/03/08 04:02:46;;;;;;;59.65;23.55;;;1.00;99.90;;;;;;5062367;28;20025;-75
2024/03/08 04:05:12;;;;;;;56.60;22.67;;;1.00;99.90;;;;;;5061050;28;20017;-75
2024/03/08 04:07:38;;;;;;;54.83;23.27;;;1.00;99.90;;;;;;5062183;28;20040;-75
2024/03/08 04:10:06;;;;;;;57.42;23.77;;;1.00;99.90;;;;;;5060796;28;20045;-75
2024/03/08 04:12:35;;;;;;;58.83;23.38;;;0.90;99.90;;;;;;5060237;28;20025;-75
2024/03/08 04:15:01;;;;;;;52.17;22.88;;;0.90;99.90;;;;;;5060277;28;20055;-74
2024/03/08 04:17:27;;;;;;;57.38;23.75;;;0.90;99.90;;;;;;5062416;28;20013;-76
2024/03/08 04:19:53;;;;;;;65.70;24.02;;;0.90;99.90;;;;;;5062309;28;21163;-73
2024/03/08 04:22:19;;;;;;;60.17;23.75;;;0.90;99.90;;;;;;5060694;28;20025;-75
2024/03/08 04:24:45;;;;;;;58.22;24.15;;;0.90;99.90;;;;;;5062281;28;20060;-73
2024/03/08 04:27:11;;;;;;;57.15;22.83;;;0.80;99.90;;;;;;5062097;28;20064;-74
2024/03/08 04:29:37;;;;;;;56.58;24.45;;;0.90;99.90;;;;;;5062000;28;20037;-74
2024/03/08 04:32:04;;;;;;;58.97;24.02;;;0.90;99.90;;;;;;5061768;28;20036;-77
2024/03/08 04:34:31;;;;;;;65.80;23.63;;;0.80;99.90;;;;;;5062355;28;20017;-74
2024/03/08 04:37:00;;;;;;;64.40;24.85;;;0.80;99.90;;;;;;5060634;28;20036;-73
2024/03/08 04:39:30;;;;;;;59.38;23.08;;;0.70;99.90;;;;;;5062055;28;20058;-74
2024/03/08 04:42:03;;;;;;;64.78;25.80;;;0.70;99.90;;;;;;5061760;28;20052;-75
2024/03/08 04:44:29;;;;;;;63.58;23.60;;;0.70;99.90;;;;;;5061544;28;20021;-75
2024/03/08 04:46:55;;;;;;;61.40;24.55;;;0.70;99.90;;;;;;5060764;28;20025;-75
2024/03/08 04:49:22;;;;;;;69.60;25.13;;;0.70;99.90;;;;;;5059914;28;20027;-72
2024/03/08 04:51:48;;;;;;;57.55;24.75;;;0.70;99.90;;;;;;5059132;28;20055;-74
2024/03/08 04:54:13;;;;;;;62.88;25.73;;;0.70;99.90;;;;;;5061970;28;20060;-73
2024/03/08 04:56:39;;;;;;;61.95;25.25;;;0.70;99.90;;;;;;5053294;28;20049;-72
2024/03/08 04:59:08;;;;;;;64.95;24.73;;;0.70;99.90;;;;;;5058180;28;20040;-73
2024/03/08 05:01:33;;;;;;;65.95;25.25;;;0.70;99.90;;;;;;5062197;28;20039;-72
2024/03/08 05:03:59;;;;;;;62.35;25.35;;;0.60;99.90;;;;;;5061784;28;20108;-73
2024/03/08 05:06:25;;;;;;;62.50;24.35;;;0.60;99.90;;;;;;5061749;28;20491;-72
2024/03/08 05:08:51;;;;;;;60.88;24.15;;;0.60;99.90;;;;;;5061704;28;20073;-73
2024/03/08 05:11:16;;;;;;;70.47;25.83;;;0.60;99.90;;;;;;5061408;28;20112;-73
2024/03/08 05:13:43;;;;;;;58.22;23.48;;;0.60;99.90;;;;;;5061851;28;20064;-72
2024/03/08 05:16:09;;;;;;;60.88;24.38;;;0.60;99.90;;;;;;5053122;28;20551;-73
2024/03/08 05:18:35;;;;;;;68.35;24.75;;;0.60;99.90;;;;;;5043679;28;20502;-74
2024/03/08 05:21:03;;;;;;;63.80;25.67;;;0.60;99.90;;;;;;5053970;28;20049;-73
2024/03/08 05:23:29;;;;;;;65.93;25.10;;;0.60;99.90;;;;;;5056986;28;20370;-74
2024/03/08 05:25:55;;;;;;;57.60;24.50;;;0.60;99.90;;;;;;5062426;28;20021;-73
2024/03/08 05:28:21;;;;;;;59.30;23.75;;;0.60;99.90;;;;;;5060692;28;20028;-72
2024/03/08 05:30:46;;;;;;;63.70;25.13;;;0.50;99.90;;;;;;5063422;28;20025;-71
2024/03/08 05:33:14;;;;;;;63.47;24.17;;;0.50;99.90;;;;;;5062695;28;20037;-73
2024/03/08 05:35:40;;;;;;;65.18;25.25;;;0.50;99.90;;;;;;5063194;28;20013;-73
2024/03/08 05:38:06;;;;;;;63.00;24.33;;;0.50;99.90;;;;;;5064279;28;20051;-73
2024/03/08 05:40:32;;;;;;;61.05;24.23;;;0.50;99.90;;;;;;5064531;28;20013;-72
2024/03/08 05:42:59;;;;;;;68.47;25.25;;;0.50;99.90;;;;;;5064067;28;20037;-70
2024/03/08 05:45:25;;;;;;;64.03;25.30;;;0.40;99.90;;;;;;5062764;28;20080;-71
2024/03/08 05:47:51;;;;;;;64.43;24.83;;;0.40;99.90;;;;;;5063675;28;20068;-71
2024/03/08 05:50:17;;;;;;;63.60;25.63;;;0.40;99.90;;;;;;5063942;28;20028;-71
2024/03/08 05:52:43;;;;;;;67.82;24.98;;;0.40;99.90;;;;;;5064309;28;20032;-73
2024/03/08 05:55:09;;;;;;;61.80;24.23;;;0.40;99.90;;;;;;5064808;28;20036;-71
2024/03/08 05:57:37;;;;;;;63.95;25.15;;;0.40;99.90;;;;;;5064432;28;20013;-70
2024/03/08 06:00:03;;;;;;;62.10;25.25;;;0.30;99.90;;;;;;5061442;28;20024;-70
2024/03/08 06:02:29;;;;;;;67.43;26.08;;;0.40;99.90;;;;;;5063364;28;20051;-70
2024/03/08 06:04:55;;;;;;;61.28;24.58;;;0.40;99.90;;;;;;5062193;28;20025;-71
2024/03/08 06:07:20;;;;;;;61.55;24.95;;;0.40;99.90;;;;;;5061942;28;20103;-70
2024/03/08 06:09:48;;;;;;;65.20;25.70;;;0.30;99.90;;;;;;5060783;28;20055;-70
2024/03/08 06:12:18;;;;;;;66.38;25.77;;;0.40;99.90;;;;;;5063507;28;20024;-71
2024/03/08 06:14:47;;;;;;;61.13;24.92;;;0.30;99.90;;;;;;5062582;28;20021;-71
2024/03/08 06:17:12;;;;;;;68.68;25.38;;;0.30;99.90;;;;;;5064362;28;20021;-71
2024/03/08 06:19:38;;;;;;;63.63;25.52;;;0.40;99.90;;;;;;5063295;28;20176;-70
2024/03/08 06:22:05;;;;;;;65.78;26.10;;;0.40;99.90;;;;;;5061815;28;20033;-71
2024/03/08 06:24:32;;;;;;;70.05;25.65;;;0.40;99.90;;;;;;5059680;28;20078;-72
2024/03/08 06:26:57;;;;;;;68.18;26.83;;;0.40;99.90;;;;;;5062635;28;20017;-71
2024/03/08 06:29:23;;;;;;;60.35;25.13;;;0.50;99.90;;;;;;5063421;28;20113;-72
2024/03/08 06:31:49;;;;;;;66.57;26.20;;;0.40;99.90;;;;;;5061947;28;20071;-71
2024/03/08 06:34:15;;;;;;;60.67;25.25;;;0.50;99.90;;;;;;5061562;28;20021;-72
2024/03/08 06:36:41;;;;;;;68.97;26.75;;;0.50;99.90;;;;;;5055970;28;20021;-72
2024/03/08 06:39:09;;;;;;;65.65;26.90;;;0.50;99.90;;;;;;5059350;28;20017;-72
2024/03/08 06:41:36;;;;;;;63.28;25.63;;;0.50;99.90;;;;;;5063064;28;20029;-72
2024/03/08 06:44:01;;;;;;;76.60;26.83;;;0.50;99.90;;;;;;5061375;28;20470;-71
2024/03/08 06:46:28;;;;;;;60.33;24.92;;;0.60;99.90;;;;;;5062219;28;20055;-71
2024/03/08 06:48:53;;;;;;;68.20;27.80;;;0.60;99.90;;;;;;5062715;28;20040;-72
2024/03/08 06:51:19;;;;;;;60.85;24.90;;;0.70;99.90;;;;;;5063431;28;20854;-72
2024/03/08 06:53:45;;;;;;;66.43;26.75;;;0.70;99.90;;;;;;5063463;28;20064;-72
2024/03/08 06:56:10;;;;;;;63.58;25.60;;;0.70;99.90;;;;;;5063544;28;20017;-71
2024/03/08 06:58:36;;;;;;;61.70;25.83;;;0.80;99.90;;;;;;5063831;28;20032;-72
2024/03/08 07:01:03;;;;;;;66.35;26.45;;;0.80;99.90;;;;;;5063469;28;20052;-71
2024/03/08 07:03:29;;;;;;;63.80;26.05;;;0.90;99.90;;;;;;5062793;28;21143;-72
2024/03/08 07:05:58;;;;;;;62.40;26.50;;;0.90;99.90;;;;;;5062667;28;20025;-71
2024/03/08 07:08:23;;;;;;;65.47;25.67;;;1.00;99.90;;;;;;5061724;28;20098;-71
2024/03/08 07:10:49;;;;;;;66.32;26.67;;;1.10;99.90;;;;;;5060015;28;20108;-71
2024/03/08 07:13:15;;;;;;;59.60;24.52;;;1.10;99.90;;;;;;5061869;28;20078;-70
2024/03/08 07:15:40;;;;;;;60.72;25.15;;;1.20;99.90;;;;;;5062952;28;20041;-70
2024/03/08 07:18:08;;;;;;;61.75;25.75;;;1.30;99.90;;;;;;5062200;28;20021;-71
2024/03/08 07:20:35;;;;;;;63.78;26.80;;;1.40;99.90;;;;;;5063216;28;20035;-71
2024/03/08 07:23:00;;;;;;;62.30;26.08;;;1.40;99.90;;;;;;5061611;28;20047;-72
2024/03/08 07:25:29;;;;;;;58.50;24.92;;;1.50;99.90;;;;;;5063284;28;20033;-72
2024/03/08 07:27:55;;;;;;;62.55;26.02;;;1.60;99.90;;;;;;5062917;28;20029;-71
2024/03/08 07:33:13;;;;;;;61.95;24.33;;;1.70;99.90;;;;;;5057223;28;20084;-71
2024/03/08 07:35:40;;;;;;;60.30;25.55;;;1.80;99.90;;;;;;5059228;28;20512;-72
2024/03/08 07:38:09;;;;;;;60.08;24.50;;;1.90;99.90;;;;;;5060334;28;20120;-72
2024/03/08 07:40:38;;;;;;;59.72;24.95;;;1.90;99.90;;;;;;5062528;28;20112;-71
2024/03/08 07:43:03;;;;;;;58.83;25.77;;;2.00;99.90;;;;;;5060968;28;20105;-73
2024/03/08 07:45:30;;;;;;;61.78;26.50;;;2.10;99.90;;;;;;5062082;28;20029;-72
2024/03/08 07:47:56;;;;;;;59.33;24.70;;;2.20;99.90;;;;;;5060624;28;20052;-71
2024/03/08 07:50:22;;;;;;;57.35;24.02;;;2.50;99.90;;;;;;5061251;28;20025;-70
2024/03/08 07:52:48;;;;;;;55.75;24.33;;;2.70;99.90;;;;;;5061288;28;20040;-71
2024/03/08 07:55:14;;;;;;;51.70;23.65;;;3.00;99.90;;;;;;5061667;28;20470;-71
2024/03/08 07:57:40;;;;;;;54.65;25.60;;;3.20;99.90;;;;;;5062082;28;20036;-72
2024/03/08 08:00:08;;;;;;;54.20;24.67;;;3.40;99.90;;;;;;5060469;28;20028;-72
2024/03/08 08:02:35;;;;;;;50.45;24.05;;;3.60;99.90;;;;;;5057606;28;20036;-72
2024/03/08 08:05:00;;;;;;;51.17;24.35;;;3.80;99.90;;;;;;5061026;28;20390;-72
2024/03/08 08:07:27;;;;;;;46.85;23.90;;;3.90;99.90;;;;;;5062498;28;20028;-71
2024/03/08 08:09:53;;;;;;;47.97;22.95;;;4.00;99.90;;;;;;5061496;28;20068;-72
2024/03/08 08:12:18;;;;;;;46.63;22.83;;;4.10;99.90;;;;;;5060385;28;20036;-72
2024/03/08 08:14:44;;;;;;;52.08;23.75;;;4.20;99.90;;;;;;5054837;28;20035;-71
2024/03/08 08:17:10;;;;;;;51.63;24.42;;;4.40;99.90;;;;;;5059351;28;20478;-72
2024/03/08 08:19:35;;;;;;;44.88;22.75;;;4.40;99.90;;;;;;5060431;28;20036;-72
2024/03/08 08:22:04;;;;;;;48.90;23.75;;;4.60;99.90;;;;;;5059882;28;21424;-72
2024/03/08 08:24:29;;;;;;;46.28;23.15;;;4.80;99.90;;;;;;5061077;28;20032;-73
2024/03/08 08:26:55;;;;;;;43.40;22.20;;;5.00;99.90;;;;;;5061386;28;20421;-71
2024/03/08 08:29:22;;;;;;;48.30;23.33;;;5.10;99.90;;;;;;5062019;28;20013;-71
2024/03/08 08:31:49;;;;;;;46.20;23.27;;;5.30;99.90;;;;;;5058389;28;20029;-72
2024/03/08 08:34:16;;;;;;;43.92;22.38;;;5.30;99.90;;;;;;5061441;28;20028;-71
2024/03/08 08:36:42;;;;;;;47.85;23.70;;;5.40;99.90;;;;;;5061672;28;20450;-73
2024/03/08 08:39:13;;;;;;;47.45;22.30;;;5.50;99.90;;;;;;5061749;28;20044;-71
2024/03/08 08:41:41;;;;;;;42.05;23.05;;;5.50;99.90;;;;;;5061964;28;20021;-73
2024/03/08 08:44:09;;;;;;;42.45;22.38;;;5.60;99.90;;;;;;5060467;28;20070;-71
2024/03/08 08:46:38;;;;;;;44.72;22.33;;;5.70;99.90;;;;;;5060073;28;20112;-72
2024/03/08 08:49:06;;;;;;;45.53;23.90;;;5.90;99.90;;;;;;5060203;28;20037;-72
2024/03/08 08:51:33;;;;;;;42.40;22.98;;;6.00;99.90;;;;;;5059358;28;20029;-72
2024/03/08 08:53:59;;;;;;;41.53;22.20;;;6.20;99.90;;;;;;5060130;28;20098;-72
2024/03/08 08:56:25;;;;;;;44.72;22.70;;;6.20;99.90;;;;;;5058573;28;20021;-72
2024/03/08 08:58:53;;;;;;;41.90;22.30;;;6.40;99.90;;;;;;5060037;28;20021;-72
2024/03/08 09:01:19;;;;;;;43.70;22.95;;;6.60;99.90;;;;;;5060902;28;20036;-73
2024/03/08 09:03:46;;;;;;;44.33;22.75;;;6.60;99.90;;;;;;5064301;28;20021;-72
2024/03/08 09:06:13;;;;;;;42.58;22.40;;;6.60;99.90;;;;;;5064820;28;20092;-72
2024/03/08 09:08:39;;;;;;;42.42;22.08;;;6.70;99.90;;;;;;5064752;28;20072;-71
2024/03/08 09:11:05;;;;;;;42.58;23.63;;;6.60;99.90;;;;;;5065304;28;20080;-75
2024/03/08 09:13:31;;;;;;;44.15;23.25;;;6.70;99.90;;;;;;5062616;28;20029;-72
2024/03/08 09:15:57;;;;;;;41.90;23.83;;;6.70;99.90;;;;;;5059493;28;20036;-72
2024/03/08 09:18:24;;;;;;;44.03;22.48;;;6.80;99.90;;;;;;5060073;28;20033;-72
2024/03/08 09:20:49;;;;;;;41.08;21.45;;;6.80;99.90;;;;;;5064973;28;20013;-72
2024/03/08 09:23:16;;;;;;;44.60;23.35;;;6.90;99.90;;;;;;5063293;28;20083;-71
2024/03/08 09:25:43;;;;;;;38.83;21.77;;;7.00;99.90;;;;;;5060353;28;20401;-72
2024/03/08 09:28:09;;;;;;;39.90;21.42;;;7.20;99.90;;;;;;5057885;28;20025;-72
2024/03/08 09:30:35;;;;;;;44.42;24.02;;;7.30;99.90;;;;;;5045399;28;20327;-72
2024/03/08 09:33:02;;;;;;;43.90;24.30;;;7.40;99.90;;;;;;5059101;28;20062;-71
2024/03/08 09:35:27;;;;;;;45.55;24.25;;;7.40;99.90;;;;;;5048769;28;20025;-73
2024/03/08 09:37:53;;;;;;;46.67;24.92;;;7.50;99.90;;;;;;5055974;28;20055;-72
2024/03/08 09:40:19;;;;;;;45.10;23.77;;;7.70;99.90;;;;;;5060455;28;20104;-72
2024/03/08 09:42:47;;;;;;;43.63;23.50;;;7.80;99.90;;;;;;5062503;28;20068;-72
2024/03/08 09:45:16;;;;;;;43.97;23.88;;;7.80;99.90;;;;;;5062676;28;20021;-71
2024/03/08 09:47:43;;;;;;;45.25;24.17;;;8.00;99.90;;;;;;5062305;28;20057;-73
2024/03/08 09:50:09;;;;;;;42.47;23.85;;;8.00;99.90;;;;;;5063665;28;20017;-72
2024/03/08 09:52:43;;;;;;;44.50;25.52;;;8.00;99.90;;;;;;5063267;28;20031;-72
2024/03/08 09:55:13;;;;;;;42.55;24.10;;;8.00;99.90;;;;;;5063646;28;20048;-72
2024/03/08 09:57:40;;;;;;;47.97;25.33;;;8.20;99.90;;;;;;5062691;28;20053;-72
2024/03/08 10:00:40;;;;;;;47.33;24.70;;;8.40;99.90;;;;;;5063751;28;20032;-72
2024/03/08 10:03:03;;;;;;;46.20;24.65;;;8.60;99.90;;;;;;5062671;28;20568;-73
2024/03/08 10:05:32;;;;;;;47.00;24.48;;;8.50;99.90;;;;;;5061897;28;20064;-72
2024/03/08 10:07:58;;;;;;;43.40;24.52;;;8.60;99.90;;;;;;5058219;28;20100;-72
2024/03/08 10:10:24;;;;;;;45.92;24.23;;;8.60;99.90;;;;;;5056888;28;20148;-73
2024/03/08 10:12:49;;;;;;;44.05;23.92;;;8.60;99.90;;;;;;5045160;28;21196;-73
2024/03/08 10:15:20;;;;;;;41.55;23.67;;;8.70;99.90;;;;;;5055514;28;20043;-72
2024/03/08 10:17:45;;;;;;;42.90;24.88;;;8.70;99.90;;;;;;5060621;28;20033;-71
2024/03/08 10:20:17;;;;;;;49.05;26.42;;;8.90;99.90;;;;;;5058153;28;20048;-72
2024/03/08 10:22:44;;;;;;;41.25;21.98;;;9.10;99.90;;;;;;5057343;28;20429;-73
2024/03/08 10:25:12;;;;;;;41.88;24.17;;;9.20;99.90;;;;;;5058099;28;21072;-72
2024/03/08 10:27:40;;;;;;;42.38;25.00;;;9.30;99.90;;;;;;5058070;28;20036;-73
2024/03/08 10:30:13;;;;;;;41.70;24.05;;;9.50;99.90;;;;;;5061361;28;20152;-73
2024/03/08 10:32:41;;;;;;;42.08;24.10;;;9.60;99.90;;;;;;5060325;28;20053;-73
2024/03/08 10:35:08;;;;;;;41.72;25.05;;;9.80;99.90;;;;;;5057722;28;20090;-74
2024/03/08 10:37:46;;;;;;;44.28;24.17;;;10.00;99.90;;;;;;5060301;28;20013;-73
2024/03/08 10:40:19;;;;;;;41.13;23.90;;;10.00;99.90;;;;;;5059994;28;20076;-72
2024/03/08 10:42:54;;;;;;;42.88;26.15;;;10.10;99.90;;;;;;5058100;28;20074;-73
2024/03/08 10:45:42;;;;;;;40.42;24.05;;;10.20;99.90;;;;;;5058421;28;20061;-72
2024/03/08 10:48:11;;;;;;;43.97;23.75;;;10.40;99.90;;;;;;5060781;28;20039;-74
2024/03/08 10:50:38;;;;;;;40.45;24.10;;;10.60;99.90;;;;;;5061450;28;20029;-71
2024/03/08 10:53:06;;;;;;;42.25;24.35;;;10.70;99.90;;;;;;5057860;28;20028;-72
2024/03/08 10:55:36;;;;;;;43.78;24.13;;;10.90;99.90;;;;;;5059888;28;20111;-73
2024/03/08 10:58:02;;;;;;;45.08;23.35;;;11.00;99.90;;;;;;5055998;28;20048;-74
2024/03/08 11:00:28;;;;;;;43.28;24.73;;;10.90;99.90;;;;;;5056293;28;20033;-71
2024/03/08 11:02:56;;;;;;;36.95;23.10;;;10.90;99.90;;;;;;5060904;28;20032;-73
2024/03/08 11:05:39;;;;;;;41.95;23.20;;;10.90;99.90;;;;;;5059701;28;20638;-73
2024/03/08 11:08:21;;;;;;;42.60;24.73;;;10.90;99.90;;;;;;5062631;28;20035;-73
2024/03/08 11:10:51;;;;;;;39.60;24.05;;;10.90;99.90;;;;;;5062615;28;20045;-73
2024/03/08 11:13:36;;;;;;;42.95;25.90;;;11.00;99.90;;;;;;5062917;28;20025;-73
2024/03/08 11:16:05;;;;;;;42.25;22.85;;;11.20;99.90;;;;;;5061605;28;20052;-74
2024/03/08 11:18:34;;;;;;;41.00;24.70;;;11.20;99.90;;;;;;5063672;28;20231;-73
2024/03/08 11:21:05;;;;;;;43.10;24.75;;;11.40;99.90;;;;;;5061881;28;20032;-75
2024/03/08 11:23:31;;;;;;;45.28;25.75;;;11.60;99.90;;;;;;5060966;28;20032;-74
2024/03/08 11:25:56;;;;;;;42.15;24.00;;;11.60;99.90;;;;;;5063006;28;20406;-72
2024/03/08 11:28:26;;;;;;;38.92;23.80;;;11.70;99.90;;;;;;5062801;28;20040;-73
2024/03/08 11:31:01;;;;;;;39.40;24.38;;;11.90;99.90;;;;;;5062790;28;20136;-73
2024/03/08 11:33:31;;;;;;;44.50;26.38;;;12.00;99.90;;;;;;5063319;28;20039;-72
2024/03/08 11:36:24;;;;;;;39.05;24.38;;;12.10;99.90;;;;;;5062729;28;20036;-73
2024/03/08 11:38:55;;;;;;;39.90;22.50;;;12.20;99.90;;;;;;5061757;28;20482;-72
2024/03/08 11:41:24;;;;;;;39.05;24.02;;;12.10;99.90;;;;;;5062981;28;20017;-72
2024/03/08 11:44:05;;;;;;;41.53;24.13;;;12.10;99.90;;;;;;5057232;28;20033;-73
2024/03/08 11:46:34;;;;;;;36.63;21.73;;;12.00;99.90;;;;;;5056157;28;20082;-74
2024/03/08 11:49:00;;;;;;;36.03;22.90;;;12.00;99.90;;;;;;5059307;28;20390;-73
2024/03/08 11:51:26;;;;;;;34.95;20.83;;;12.10;99.90;;;;;;5059330;28;20029;-74
2024/03/08 11:53:52;;;;;;;37.45;22.73;;;12.40;99.90;;;;;;5060192;28;20025;-72
2024/03/08 11:56:20;;;;;;;34.92;19.50;;;12.40;99.90;;;;;;5062422;28;20028;-74
2024/03/08 11:58:57;;;;;;;39.75;23.90;;;12.40;99.90;;;;;;5059853;28;20114;-73
2024/03/08 12:01:23;;;;;;;36.85;20.27;;;12.60;99.90;;;;;;5059297;28;20075;-72
2024/03/08 12:03:59;;;;;;;35.75;22.13;;;12.60;99.90;;;;;;5060223;28;20088;-73
2024/03/08 12:06:25;;;;;;;39.35;22.48;;;12.70;99.90;;;;;;5062120;28;20051;-73
2024/03/08 12:08:51;;;;;;;36.97;22.55;;;12.80;99.90;;;;;;5059282;28;20044;-73
2024/03/08 12:11:22;;;;;;;35.75;21.08;;;13.00;99.90;;;;;;5058531;28;20037;-74
2024/03/08 12:13:50;;;;;;;38.20;23.35;;;13.20;99.90;;;;;;5059636;28;20021;-73
2024/03/08 12:16:22;;;;;;;36.83;22.05;;;13.40;99.90;;;;;;5058151;28;21006;-73
2024/03/08 12:18:48;;;;;;;34.30;21.05;;;13.50;99.90;;;;;;5060022;28;20051;-74
2024/03/08 12:21:17;;;;;;;36.25;20.45;;;13.50;99.90;;;;;;5058722;28;20049;-72
2024/03/08 12:23:44;;;;;;;40.03;21.13;;;13.50;99.90;;;;;;5061821;28;20025;-75
2024/03/08 12:26:14;;;;;;;34.88;20.73;;;13.50;99.90;;;;;;5058685;28;20029;-73
2024/03/08 12:28:40;;;;;;;35.20;21.33;;;13.70;99.90;;;;;;5062091;28;20072;-75
2024/03/08 12:31:10;;;;;;;34.80;20.42;;;13.80;99.90;;;;;;5056860;28;20031;-74
2024/03/08 12:33:58;;;;;;;34.75;21.42;;;14.00;99.90;;;;;;5058820;28;20376;-74
2024/03/08 12:36:25;;;;;;;35.83;21.80;;;14.20;99.90;;;;;;5058562;28;20481;-74
2024/03/08 12:38:51;;;;;;;37.15;21.92;;;14.30;99.90;;;;;;5058766;28;20151;-74